Time;durP1;ratioP1;P1;durP2;ratioP2;P2;SDS_P1;SDS_P2;PMS_P1;PMS_P2;Temp;Humidity;BMP_temperature;BMP_pressure;BME280_temperature;BME280_humidity;BME280_pressure;Samples;Min_cycle;Max_cycle;Signal;HPM_P1;HPM_P2
2023/11/17 00:00:39;;;;;;;3.37;2.60;;;3.80;99.90;3.50;99903.00;;;;4893719;28;109194;-72
2023/11/17 00:03:05;;;;;;;5.00;3.53;;;3.80;99.90;3.50;99899.00;;;;4886269;28;93006;-71
2023/11/17 00:05:31;;;;;;;3.17;2.87;;;3.80;99.90;3.40;99912.00;;;;4887732;28;121659;-72
2023/11/17 00:07:56;;;;;;;6.33;2.70;;;3.70;99.90;3.40;99911.00;;;;4875684;28;93805;-72
2023/11/17 00:10:22;;;;;;;3.23;2.73;;;3.60;99.90;3.40;99919.00;;;;4885328;28;108668;-72
2023/11/17 00:12:50;;;;;;;4.90;3.17;;;3.60;99.90;3.30;99903.00;;;;4889227;28;112085;-72
2023/11/17 00:15:17;;;;;;;3.20;2.70;;;3.60;99.90;3.30;99905.00;;;;4892307;28;97774;-72
2023/11/17 00:17:42;;;;;;;4.50;3.20;;;3.60;99.90;3.20;99908.00;;;;4881790;28;93195;-72
2023/11/17 00:20:08;;;;;;;2.83;2.53;;;3.50;99.90;3.20;99911.00;;;;4890395;28;108894;-71
2023/11/17 00:22:34;;;;;;;3.80;2.70;;;3.50;99.90;3.10;99917.00;;;;4889452;28;94447;-72
2023/11/17 00:25:00;;;;;;;6.07;3.90;;;3.50;99.90;3.10;99914.00;;;;4889502;28;122151;-72
2023/11/17 00:27:25;;;;;;;3.77;2.87;;;3.30;99.90;3.00;99919.00;;;;4886299;28;111045;-72
2023/11/17 00:29:51;;;;;;;4.87;3.10;;;3.30;99.90;3.00;99921.00;;;;4887105;28;108692;-72
2023/11/17 00:32:17;;;;;;;4.00;2.47;;;3.20;99.90;2.90;99913.00;;;;4887860;28;94456;-72
2023/11/17 00:34:42;;;;;;;3.50;2.60;;;3.80;99.90;2.80;99918.00;;;;4886068;28;123643;-72
2023/11/17 00:37:11;;;;;;;3.27;2.87;;;3.20;99.90;2.80;99924.00;;;;4879332;28;109548;-72
2023/11/17 00:39:37;;;;;;;3.67;2.47;;;3.70;99.90;2.70;99933.00;;;;4870698;28;92997;-72
2023/11/17 00:42:03;;;;;;;3.00;2.53;;;3.00;99.90;2.60;99941.00;;;;4870857;28;93153;-72
2023/11/17 00:44:30;;;;;;;4.33;2.97;;;3.00;99.90;2.60;99932.00;;;;4861209;28;113607;-72
2023/11/17 00:46:56;;;;;;;6.83;2.90;;;2.90;99.90;2.50;99932.00;;;;4887089;28;101812;-73
2023/11/17 00:49:22;;;;;;;3.20;2.57;;;2.80;99.90;2.40;99935.00;;;;4864693;28;92111;-73
2023/11/17 00:51:49;;;;;;;3.40;3.10;;;2.70;99.90;2.30;99943.00;;;;4885925;28;93288;-72
2023/11/17 00:54:15;;;;;;;3.80;2.83;;;2.60;99.90;2.30;99948.00;;;;4873901;28;95755;-73
2023/11/17 00:56:41;;;;;;;4.37;2.93;;;2.50;99.90;2.20;99943.00;;;;4884082;28;93938;-72
2023/11/17 00:59:11;;;;;;;3.27;2.97;;;2.50;99.90;2.10;99952.00;;;;4888837;28;108433;-72
2023/11/17 01:01:39;;;;;;;3.13;2.80;;;2.50;99.90;2.10;99951.00;;;;4880465;28;94808;-73
2023/11/17 01:04:05;;;;;;;3.50;2.97;;;2.30;99.90;2.00;99951.00;;;;4886893;28;94060;-73
2023/11/17 01:06:31;;;;;;;2.80;2.47;;;2.40;99.90;2.00;99958.00;;;;4891501;28;109045;-73
2023/11/17 01:08:59;;;;;;;3.43;2.33;;;2.20;99.90;1.90;99965.00;;;;4886032;28;108930;-73
2023/11/17 01:11:26;;;;;;;3.30;2.50;;;2.20;99.90;1.90;99964.00;;;;4885238;28;113072;-73
2023/11/17 01:13:52;;;;;;;3.93;2.40;;;2.20;99.90;1.80;99966.00;;;;4887453;28;94330;-73
2023/11/17 01:16:17;;;;;;;3.80;3.07;;;2.10;99.90;1.70;99969.00;;;;4886660;28;110390;-72
2023/11/17 01:18:43;;;;;;;2.50;2.30;;;2.10;99.90;1.70;99958.00;;;;4889653;28;108621;-73
2023/11/17 01:21:09;;;;;;;2.93;2.53;;;2.00;99.90;1.70;99962.00;;;;4885073;28;122669;-73
2023/11/17 01:23:34;;;;;;;2.37;2.17;;;2.00;99.90;1.60;99973.00;;;;4885868;28;123817;-73
2023/11/17 01:26:00;;;;;;;3.00;2.63;;;1.90;99.90;1.60;99968.00;;;;4872582;28;109785;-73
2023/11/17 01:28:26;;;;;;;2.80;2.20;;;1.90;99.90;1.50;99967.00;;;;4888807;28;108365;-73
2023/11/17 01:30:51;;;;;;;2.47;1.97;;;1.90;99.90;1.50;99978.00;;;;4882785;28;122411;-73
2023/11/17 01:33:18;;;;;;;2.83;2.33;;;1.90;99.90;1.50;99988.00;;;;4883807;28;123372;-73
2023/11/17 01:35:44;;;;;;;4.10;2.57;;;1.70;99.90;1.40;99980.00;;;;4888094;28;93533;-73
2023/11/17 01:38:11;;;;;;;2.47;2.27;;;1.80;99.90;1.40;99987.00;;;;4873242;28;108265;-73
2023/11/17 01:40:37;;;;;;;1.90;1.80;;;1.80;99.90;1.40;99996.00;;;;4884852;28;93721;-74
2023/11/17 01:43:11;;;;;;;3.97;2.53;;;1.70;99.90;1.40;100003.00;;;;4867948;28;92892;-73
2023/11/17 01:45:38;;;;;;;3.80;2.63;;;1.70;99.90;1.40;100010.00;;;;4880906;28;94164;-73
2023/11/17 01:48:04;;;;;;;5.10;2.63;;;1.80;99.90;1.40;100007.00;;;;4867086;28;93421;-74
2023/11/17 01:50:30;;;;;;;2.40;2.20;;;1.70;99.90;1.50;100021.00;;;;4865668;28;93476;-73
2023/11/17 01:52:55;;;;;;;3.13;2.67;;;1.80;99.90;1.50;100028.00;;;;4885728;28;122330;-73
2023/11/17 01:55:21;;;;;;;5.03;3.13;;;1.80;99.90;1.50;100019.00;;;;4887956;28;92892;-73
2023/11/17 01:57:48;;;;;;;3.90;2.73;;;1.80;99.90;1.50;100021.00;;;;4870435;28;93172;-73
2023/11/17 02:00:14;;;;;;;2.77;2.53;;;1.80;99.90;1.50;100022.00;;;;4882000;28;123289;-73
2023/11/17 02:02:47;;;;;;;2.43;2.23;;;1.80;99.90;1.50;100025.00;;;;4888398;28;93069;-73
2023/11/17 02:05:36;;;;;;;3.57;2.63;;;2.20;99.90;1.50;100021.00;;;;4888977;28;94367;-74
2023/11/17 02:08:32;;;;;;;3.67;2.80;;;1.80;99.90;1.40;100022.00;;;;4873077;28;92871;-73
2023/11/17 02:11:14;;;;;;;4.30;2.93;;;1.80;99.90;1.40;100017.00;;;;4886817;28;94253;-73
2023/11/17 02:14:05;;;;;;;4.67;2.87;;;1.80;99.90;1.40;100021.00;;;;4887089;28;96798;-73
2023/11/17 02:16:35;;;;;;;3.37;2.40;;;1.70;99.90;1.40;100014.00;;;;4872829;28;93182;-75
2023/11/17 02:19:15;;;;;;;3.87;2.27;;;1.70;99.90;1.40;100014.00;;;;4863006;28;92858;-73
2023/11/17 02:21:43;;;;;;;4.40;3.50;;;1.70;99.90;1.40;100017.00;;;;4865819;28;93065;-74
2023/11/17 02:24:11;;;;;;;3.30;2.63;;;1.70;99.90;1.40;100026.00;;;;4861643;28;93377;-73
2023/11/17 02:26:52;;;;;;;2.77;2.57;;;1.70;99.90;1.40;100022.00;;;;4868303;28;94512;-73
2023/11/17 02:29:27;;;;;;;2.30;2.10;;;1.70;99.90;1.40;100019.00;;;;4857978;28;92613;-73
2023/11/17 02:31:57;;;;;;;5.80;2.27;;;1.70;99.90;1.40;100029.00;;;;4847997;28;94738;-73
2023/11/17 02:34:25;;;;;;;3.37;2.70;;;1.60;99.90;1.30;100027.00;;;;4850769;28;93518;-73
2023/11/17 02:36:51;;;;;;;4.60;2.97;;;1.60;99.90;1.30;100030.00;;;;4846923;28;94097;-73
2023/11/17 02:39:26;;;;;;;2.90;2.10;;;1.60;99.90;1.30;100030.00;;;;4869572;28;92889;-73
2023/11/17 02:41:57;;;;;;;3.07;2.23;;;1.70;99.90;1.30;100028.00;;;;4869417;28;93658;-73
2023/11/17 02:44:33;;;;;;;3.93;3.00;;;1.60;99.90;1.30;100027.00;;;;4868827;28;93747;-74
2023/11/17 02:47:03;;;;;;;2.60;2.27;;;1.50;99.90;1.20;100039.00;;;;4868802;28;92850;-73
2023/11/17 02:49:41;;;;;;;4.13;2.93;;;1.60;99.90;1.20;100038.00;;;;4842809;28;93395;-74
2023/11/17 02:52:23;;;;;;;3.50;3.20;;;1.60;99.90;1.20;100041.00;;;;4855709;28;94570;-74
2023/11/17 02:54:50;;;;;;;5.20;3.47;;;1.60;99.90;1.20;100049.00;;;;4870606;28;93457;-74
2023/11/17 02:57:21;;;;;;;4.60;3.20;;;1.50;99.90;1.10;100043.00;;;;4856438;28;94539;-74
2023/11/17 02:59:47;;;;;;;4.60;3.23;;;1.50;99.90;1.10;100055.00;;;;4866768;28;99715;-74
2023/11/17 03:02:19;;;;;;;4.63;2.60;;;1.50;99.90;1.10;100058.00;;;;4866784;28;95691;-74
2023/11/17 03:04:45;;;;;;;5.40;3.17;;;1.50;99.90;1.10;100065.00;;;;4869350;28;95090;-73
2023/11/17 03:07:11;;;;;;;3.17;2.87;;;1.40;99.90;1.10;100078.00;;;;4848837;28;109483;-73
2023/11/17 03:09:37;;;;;;;3.63;2.97;;;1.40;99.90;1.10;100066.00;;;;4849224;28;93187;-73
2023/11/17 03:12:06;;;;;;;5.47;2.87;;;1.40;99.90;1.10;100080.00;;;;4868119;28;122487;-73
2023/11/17 03:14:32;;;;;;;4.50;2.80;;;1.40;99.90;1.10;100087.00;;;;4865725;28;93454;-74
2023/11/17 03:16:59;;;;;;;4.67;2.97;;;1.40;99.90;1.10;100089.00;;;;4833201;28;110509;-73
2023/11/17 03:19:31;;;;;;;4.63;2.77;;;1.30;99.90;1.10;100093.00;;;;4886728;28;103036;-74
2023/11/17 03:21:57;;;;;;;3.93;2.90;;;1.60;99.90;1.10;100078.00;;;;4886415;28;95078;-73
2023/11/17 03:24:25;;;;;;;2.63;2.43;;;1.40;99.90;1.10;100084.00;;;;4865159;28;93171;-74
2023/11/17 03:26:52;;;;;;;3.07;1.87;;;1.40;99.90;1.10;100088.00;;;;4883202;28;100762;-73
2023/11/17 03:29:23;;;;;;;2.83;2.60;;;1.40;99.90;1.10;100096.00;;;;4885538;28;93160;-72
2023/11/17 03:31:52;;;;;;;4.53;3.10;;;1.50;99.90;1.10;100085.00;;;;4885155;28;116451;-72
2023/11/17 03:34:30;;;;;;;4.63;2.47;;;1.50;99.90;1.20;100087.00;;;;4892847;28;92919;-72
2023/11/17 03:37:04;;;;;;;2.90;2.63;;;1.50;99.90;1.10;100090.00;;;;4891899;28;92965;-73
2023/11/17 03:39:42;;;;;;;3.93;3.13;;;1.50;99.90;1.10;100087.00;;;;4869254;28;98551;-73
2023/11/17 03:42:11;;;;;;;8.80;3.30;;;1.50;99.90;1.20;100101.00;;;;4872758;28;93549;-73
2023/11/17 03:44:37;;;;;;;5.10;3.80;;;1.50;99.90;1.20;100103.00;;;;4889180;28;94016;-72
2023/11/17 03:47:06;;;;;;;4.87;3.53;;;1.50;99.90;1.20;100108.00;;;;4885640;28;110139;-71
2023/11/17 03:49:33;;;;;;;6.17;3.43;;;1.50;99.90;1.20;100111.00;;;;4889525;28;92981;-70
2023/11/17 03:51:59;;;;;;;6.13;3.50;;;1.60;99.90;1.20;100109.00;;;;4885711;28;94009;-73
2023/11/17 03:54:25;;;;;;;4.97;3.43;;;1.60;99.90;1.20;100117.00;;;;4889248;28;94815;-72
2023/11/17 03:56:54;;;;;;;4.87;3.57;;;1.60;99.90;1.20;100118.00;;;;4890034;28;109602;-70
2023/11/17 03:59:21;;;;;;;3.00;2.70;;;1.50;99.90;1.20;100128.00;;;;4889743;28;93167;-69
2023/11/17 04:01:48;;;;;;;5.53;3.80;;;1.50;99.90;1.30;100125.00;;;;4887558;28;93564;-72
2023/11/17 04:04:17;;;;;;;6.17;3.53;;;1.60;99.90;1.40;100133.00;;;;4891931;28;109638;-70
2023/11/17 04:06:54;;;;;;;6.20;4.17;;;1.60;99.90;1.50;100129.00;;;;4883987;28;93003;-69
2023/11/17 04:09:23;;;;;;;6.73;4.27;;;1.70;99.90;1.60;100130.00;;;;4873898;28;92577;-71
2023/11/17 04:11:50;;;;;;;5.00;4.03;;;1.80;99.90;1.70;100129.00;;;;4893717;28;93943;-71
2023/11/17 04:14:20;;;;;;;7.23;4.97;;;1.90;99.90;1.70;100127.00;;;;4892194;28;92931;-69
2023/11/17 04:16:47;;;;;;;6.70;4.67;;;2.00;99.90;1.80;100146.00;;;;4887740;28;103392;-69
2023/11/17 04:19:14;;;;;;;7.83;5.03;;;2.00;99.90;1.80;100147.00;;;;4889666;28;93274;-72
2023/11/17 04:21:40;;;;;;;4.63;3.87;;;2.00;99.90;1.90;100143.00;;;;4886764;28;94455;-72
2023/11/17 04:24:06;;;;;;;7.20;4.17;;;2.10;99.90;1.90;100148.00;;;;4853869;28;121660;-74
2023/11/17 04:26:32;;;;;;;5.27;3.83;;;2.20;99.90;2.00;100155.00;;;;4887107;28;101533;-71
2023/11/17 04:28:58;;;;;;;5.80;4.30;;;2.20;99.90;2.00;100153.00;;;;4887555;28;95344;-73
2023/11/17 04:31:23;;;;;;;8.57;5.03;;;2.30;99.90;2.00;100158.00;;;;4889863;28;104265;-72
2023/11/17 04:33:49;;;;;;;9.47;4.53;;;2.20;99.90;2.10;100158.00;;;;4883077;28;121105;-72
2023/11/17 04:36:16;;;;;;;5.80;3.70;;;2.30;99.90;2.10;100162.00;;;;4888491;28;93074;-72
2023/11/17 04:38:41;;;;;;;4.03;3.53;;;2.40;99.90;2.10;100170.00;;;;4867859;28;93362;-73
2023/11/17 04:41:07;;;;;;;5.60;4.37;;;2.40;99.90;2.10;100167.00;;;;4889109;28;95416;-73
2023/11/17 04:43:33;;;;;;;7.53;5.60;;;2.50;99.90;2.20;100165.00;;;;4884766;28;124206;-71
2023/11/17 04:46:00;;;;;;;4.23;3.83;;;2.50;99.90;2.20;100158.00;;;;4884402;28;93203;-73
2023/11/17 04:48:25;;;;;;;6.27;4.60;;;2.50;99.90;2.20;100174.00;;;;4891661;28;93086;-72
2023/11/17 04:50:52;;;;;;;5.23;4.37;;;2.40;99.90;2.30;100175.00;;;;4891813;28;121752;-73
2023/11/17 04:53:17;;;;;;;10.53;5.03;;;2.50;99.90;2.30;100172.00;;;;4886826;28;92973;-71
2023/11/17 04:55:44;;;;;;;6.77;4.50;;;2.50;99.90;2.30;100182.00;;;;4883595;28;109675;-72
2023/11/17 04:58:13;;;;;;;6.27;4.43;;;2.50;99.90;2.30;100177.00;;;;4872112;28;94401;-72
2023/11/17 05:00:40;;;;;;;8.10;4.97;;;2.60;99.90;2.30;100183.00;;;;4886701;28;93960;-72
2023/11/17 05:03:06;;;;;;;7.57;4.93;;;2.60;99.90;2.40;100190.00;;;;4886313;28;93673;-71
2023/11/17 05:05:33;;;;;;;6.53;4.50;;;2.60;99.90;2.40;100199.00;;;;4888336;28;110511;-71
2023/11/17 05:08:02;;;;;;;5.97;4.10;;;2.60;99.90;2.40;100207.00;;;;4891624;28;93346;-70
2023/11/17 05:10:28;;;;;;;7.93;5.93;;;2.60;99.90;2.40;100208.00;;;;4887610;28;122921;-71
2023/11/17 05:12:53;;;;;;;7.40;4.57;;;2.60;99.90;2.40;100202.00;;;;4889639;28;122892;-71
2023/11/17 05:15:20;;;;;;;6.73;5.13;;;2.60;99.90;2.40;100204.00;;;;4887625;28;109629;-72
2023/11/17 05:17:48;;;;;;;9.60;5.43;;;2.60;99.90;2.40;100214.00;;;;4888144;28;92881;-74
2023/11/17 05:20:23;;;;;;;6.90;4.57;;;2.60;99.90;2.40;100216.00;;;;4862223;28;93173;-71
2023/11/17 05:22:52;;;;;;;8.10;5.23;;;2.70;99.90;2.40;100217.00;;;;4885851;28;92786;-73
2023/11/17 05:25:18;;;;;;;5.90;4.10;;;2.60;99.90;2.30;100223.00;;;;4886871;28;93542;-72
2023/11/17 05:27:48;;;;;;;7.03;5.13;;;2.60;99.90;2.30;100231.00;;;;4883833;28;96634;-72
2023/11/17 05:30:15;;;;;;;9.77;5.10;;;2.60;99.90;2.30;100230.00;;;;4887124;28;95352;-69
2023/11/17 05:32:41;;;;;;;4.83;4.30;;;2.60;99.90;2.30;100241.00;;;;4885801;28;94977;-70
2023/11/17 05:35:08;;;;;;;5.43;3.80;;;2.60;99.90;2.30;100243.00;;;;4885168;28;93224;-72
2023/11/17 05:37:34;;;;;;;4.67;3.67;;;2.60;99.90;2.30;100243.00;;;;4884680;28;93075;-71
2023/11/17 05:40:00;;;;;;;6.07;4.00;;;2.50;99.90;2.30;100250.00;;;;4886638;28;123133;-71
2023/11/17 05:42:28;;;;;;;5.83;3.50;;;2.60;99.90;2.30;100246.00;;;;4879745;28;114045;-69
2023/11/17 05:44:54;;;;;;;3.77;3.47;;;2.60;99.90;2.30;100247.00;;;;4883377;28;92831;-69
2023/11/17 05:47:21;;;;;;;5.27;4.00;;;2.60;99.90;2.30;100257.00;;;;4884298;28;101499;-69
2023/11/17 05:49:47;;;;;;;6.13;3.83;;;2.60;99.90;2.30;100239.00;;;;4882730;28;94338;-69
2023/11/17 05:52:15;;;;;;;5.63;3.67;;;2.60;99.90;2.30;100253.00;;;;4883364;28;123320;-68
2023/11/17 05:54:43;;;;;;;3.73;3.33;;;2.60;99.90;2.30;100243.00;;;;4885283;28;94241;-70
2023/11/17 05:57:10;;;;;;;6.17;4.10;;;2.70;99.90;2.40;100245.00;;;;4884958;28;93204;-68
2023/11/17 05:59:36;;;;;;;4.17;3.37;;;2.60;99.90;2.40;100253.00;;;;4881817;28;94120;-70
2023/11/17 06:02:03;;;;;;;4.47;3.70;;;3.30;99.90;2.40;100264.00;;;;4886818;28;122792;-70
2023/11/17 06:04:29;;;;;;;4.57;3.70;;;2.70;99.90;2.40;100251.00;;;;4888402;28;92724;-68
2023/11/17 06:06:55;;;;;;;6.47;3.27;;;2.70;99.90;2.40;100268.00;;;;4886898;28;97483;-70
2023/11/17 06:09:20;;;;;;;5.43;3.40;;;2.70;99.90;2.50;100268.00;;;;4884466;28;122370;-69
2023/11/17 06:11:46;;;;;;;6.07;3.60;;;2.70;99.90;2.50;100267.00;;;;4887508;28;118773;-70
2023/11/17 06:14:12;;;;;;;5.40;3.80;;;2.80;99.90;2.50;100262.00;;;;4892250;28;109372;-69
2023/11/17 06:16:38;;;;;;;4.53;3.27;;;2.70;99.90;2.50;100264.00;;;;4884917;28;93593;-68
2023/11/17 06:19:04;;;;;;;5.80;2.77;;;2.70;99.90;2.50;100275.00;;;;4888691;28;126795;-69
2023/11/17 06:21:29;;;;;;;4.90;3.03;;;2.60;99.90;2.50;100268.00;;;;4887300;28;124255;-68
2023/11/17 06:23:55;;;;;;;5.50;3.67;;;3.10;99.90;2.50;100274.00;;;;4888474;28;93193;-67
2023/11/17 06:26:22;;;;;;;4.47;3.13;;;2.70;99.90;2.50;100277.00;;;;4888977;28;92633;-68
2023/11/17 06:28:48;;;;;;;3.57;2.87;;;2.70;99.90;2.60;100276.00;;;;4885491;28;94252;-66
2023/11/17 06:31:14;;;;;;;4.83;3.57;;;2.80;99.90;2.60;100277.00;;;;4886285;28;122133;-66
2023/11/17 06:33:40;;;;;;;3.47;2.60;;;2.80;99.90;2.60;100265.00;;;;4888124;28;98500;-67
2023/11/17 06:36:08;;;;;;;2.80;2.50;;;2.90;99.90;2.60;100273.00;;;;4889149;28;92394;-67
2023/11/17 06:38:34;;;;;;;2.87;2.33;;;2.90;99.90;2.60;100273.00;;;;4891620;28;93199;-66
2023/11/17 06:41:00;;;;;;;4.50;2.53;;;2.80;99.90;2.60;100288.00;;;;4886164;28;93415;-65
2023/11/17 06:43:29;;;;;;;2.70;1.97;;;2.90;99.90;2.60;100278.00;;;;4887517;28;94213;-66
2023/11/17 06:45:55;;;;;;;3.33;2.07;;;2.90;99.90;2.60;100278.00;;;;4887725;28;92820;-67
2023/11/17 06:48:21;;;;;;;5.97;2.43;;;2.90;99.90;2.70;100283.00;;;;4887600;28;93482;-67
2023/11/17 06:50:50;;;;;;;2.93;2.63;;;2.80;99.90;2.70;100285.00;;;;4888486;28;93095;-67
2023/11/17 06:53:18;;;;;;;4.40;2.13;;;2.90;99.90;2.70;100281.00;;;;4891558;28;93208;-65
2023/11/17 06:55:44;;;;;;;2.70;2.33;;;2.90;99.90;2.70;100294.00;;;;4889281;28;96324;-66
2023/11/17 06:58:10;;;;;;;3.20;2.47;;;2.90;99.90;2.70;100293.00;;;;4886299;28;94243;-66
2023/11/17 07:00:36;;;;;;;3.07;2.77;;;3.00;99.90;2.70;100293.00;;;;4892626;28;93441;-65
2023/11/17 07:03:02;;;;;;;3.33;2.10;;;3.00;99.90;2.70;100294.00;;;;4888312;28;92835;-66
2023/11/17 07:05:31;;;;;;;3.73;2.23;;;3.00;99.90;2.70;100285.00;;;;4886413;28;93168;-65
2023/11/17 07:07:57;;;;;;;2.47;1.77;;;3.00;99.90;2.80;100300.00;;;;4884977;28;94711;-65
2023/11/17 07:10:25;;;;;;;2.20;1.97;;;3.00;99.90;2.80;100299.00;;;;4892605;28;95041;-66
2023/11/17 07:12:52;;;;;;;1.90;1.80;;;3.10;99.90;2.80;100300.00;;;;4889130;28;110436;-66
2023/11/17 07:15:18;;;;;;;2.60;2.17;;;3.10;99.90;2.80;100317.00;;;;4892828;28;92890;-66
2023/11/17 07:17:45;;;;;;;1.80;1.60;;;3.00;99.90;2.80;100320.00;;;;4876116;28;93707;-67
2023/11/17 07:20:12;;;;;;;2.83;2.20;;;3.20;99.90;2.90;100309.00;;;;4891343;28;94150;-65
2023/11/17 07:22:39;;;;;;;2.63;1.70;;;3.10;99.90;2.90;100316.00;;;;4891815;28;93333;-65
2023/11/17 07:25:06;;;;;;;1.93;1.73;;;3.10;99.90;2.90;100321.00;;;;4874841;28;92384;-65
2023/11/17 07:27:32;;;;;;;2.23;1.77;;;3.10;99.90;2.90;100325.00;;;;4889688;28;94300;-66
2023/11/17 07:29:57;;;;;;;3.50;2.10;;;3.20;99.90;3.00;100316.00;;;;4885880;28;121877;-68
2023/11/17 07:32:23;;;;;;;2.20;1.97;;;3.10;99.90;3.00;100340.00;;;;4887906;28;93847;-65
2023/11/17 07:34:50;;;;;;;2.97;1.93;;;3.10;99.90;3.00;100325.00;;;;4889378;28;93075;-66
2023/11/17 07:37:16;;;;;;;1.73;1.50;;;3.20;99.90;3.00;100325.00;;;;4886698;28;94200;-66
2023/11/17 07:39:41;;;;;;;1.90;1.77;;;3.30;99.90;3.10;100335.00;;;;4889178;28;94177;-66
2023/11/17 07:42:08;;;;;;;2.83;2.23;;;3.40;99.90;3.10;100332.00;;;;4890724;28;102125;-67
2023/11/17 07:44:36;;;;;;;2.43;1.93;;;3.30;99.90;3.10;100336.00;;;;4892094;28;92931;-68
2023/11/17 07:47:04;;;;;;;3.23;1.93;;;3.30;99.90;3.10;100341.00;;;;4893461;28;93910;-65
2023/11/17 07:49:30;;;;;;;3.13;2.40;;;3.30;99.90;3.20;100350.00;;;;4890619;28;93883;-65
2023/11/17 07:51:57;;;;;;;2.73;1.73;;;3.40;99.90;3.20;100354.00;;;;4894009;28;101741;-67
2023/11/17 07:54:23;;;;;;;2.70;2.40;;;3.40;99.90;3.20;100359.00;;;;4888056;28;93434;-67
2023/11/17 07:56:50;;;;;;;2.17;1.87;;;3.40;99.90;3.20;100360.00;;;;4889701;28;95001;-66
2023/11/17 07:59:19;;;;;;;1.23;1.13;;;3.40;99.90;3.20;100359.00;;;;4892947;28;93897;-66
2023/11/17 08:01:45;;;;;;;2.20;1.50;;;3.40;99.90;3.30;100375.00;;;;4883761;28;93125;-66
2023/11/17 08:04:11;;;;;;;2.50;1.47;;;3.50;99.90;3.30;100363.00;;;;4890834;28;93401;-67
2023/11/17 08:06:37;;;;;;;2.40;2.07;;;3.50;99.90;3.30;100376.00;;;;4887528;28;94045;-66
2023/11/17 08:09:04;;;;;;;2.97;1.77;;;3.50;99.90;3.30;100372.00;;;;4889353;28;92909;-66
2023/11/17 08:11:30;;;;;;;1.37;1.27;;;3.50;99.90;3.30;100361.00;;;;4889275;28;93190;-66
2023/11/17 08:13:57;;;;;;;2.10;1.73;;;3.50;99.90;3.30;100378.00;;;;4891900;28;92411;-65
2023/11/17 08:16:23;;;;;;;2.43;1.70;;;3.60;99.90;3.30;100388.00;;;;4891861;28;94259;-65
2023/11/17 08:18:51;;;;;;;1.83;1.60;;;4.10;99.90;3.30;100395.00;;;;4887914;28;114564;-67
2023/11/17 08:21:17;;;;;;;1.83;1.63;;;3.60;99.90;3.40;100394.00;;;;4890634;28;95479;-66
2023/11/17 08:23:44;;;;;;;3.00;1.20;;;3.60;99.90;3.40;100392.00;;;;4887883;28;109240;-66
2023/11/17 08:26:14;;;;;;;3.73;2.03;;;3.60;99.90;3.40;100395.00;;;;4887996;28;93671;-66
2023/11/17 08:28:40;;;;;;;2.40;1.43;;;3.60;99.90;3.50;100393.00;;;;4890944;28;93671;-66
2023/11/17 08:31:06;;;;;;;1.40;1.30;;;3.60;99.90;3.50;100385.00;;;;4891045;28;93143;-66
2023/11/17 08:33:32;;;;;;;2.50;1.33;;;3.60;99.90;3.50;100395.00;;;;4891137;28;92815;-65
2023/11/17 08:35:58;;;;;;;2.00;1.30;;;3.70;99.90;3.50;100394.00;;;;4889642;28;121961;-66
2023/11/17 08:38:25;;;;;;;1.40;1.13;;;3.70;99.90;3.50;100393.00;;;;4890985;28;93586;-67
2023/11/17 08:40:55;;;;;;;1.10;0.63;;;3.70;99.90;3.60;100391.00;;;;4894450;28;93019;-66
2023/11/17 08:43:21;;;;;;;1.17;1.07;;;3.70;99.90;3.60;100404.00;;;;4892287;28;92857;-66
2023/11/17 08:45:51;;;;;;;1.97;1.20;;;3.60;99.90;3.60;100402.00;;;;4887760;28;95345;-66
2023/11/17 08:48:17;;;;;;;0.60;0.60;;;3.90;99.90;3.60;100407.00;;;;4889343;28;94579;-68
2023/11/17 08:50:42;;;;;;;1.60;1.23;;;3.80;99.90;3.70;100405.00;;;;4887254;28;92959;-65
2023/11/17 08:53:09;;;;;;;1.73;1.57;;;3.80;99.90;3.80;100424.00;;;;4887271;28;106066;-66
2023/11/17 08:55:35;;;;;;;1.27;1.17;;;4.50;99.90;3.80;100416.00;;;;4886489;28;94062;-65
2023/11/17 08:58:01;;;;;;;2.43;1.40;;;4.00;99.90;3.80;100417.00;;;;4870016;28;99014;-65
2023/11/17 09:00:26;;;;;;;1.60;1.40;;;4.00;99.90;3.80;100427.00;;;;4887307;28;110228;-65
2023/11/17 09:02:53;;;;;;;2.30;1.40;;;4.00;99.90;3.90;100420.00;;;;4887633;28;108889;-66
2023/11/17 09:05:21;;;;;;;2.13;1.37;;;4.10;99.90;3.90;100427.00;;;;4892994;28;93642;-66
2023/11/17 09:07:49;;;;;;;1.10;0.97;;;4.10;99.90;3.90;100445.00;;;;4870511;28;93963;-65
2023/11/17 09:10:21;;;;;;;1.13;1.03;;;4.10;99.90;3.90;100450.00;;;;4889816;28;93811;-66
2023/11/17 09:12:48;;;;;;;1.37;1.17;;;4.20;99.90;3.90;100440.00;;;;4886772;28;93808;-66
2023/11/17 09:15:18;;;;;;;2.40;1.40;;;4.90;99.90;3.90;100446.00;;;;4890144;28;93048;-66
2023/11/17 09:17:47;;;;;;;0.90;0.77;;;4.10;99.90;3.90;100453.00;;;;4890699;28;112224;-66
2023/11/17 09:20:14;;;;;;;1.13;1.07;;;4.70;99.90;3.90;100454.00;;;;4889464;28;93282;-66
2023/11/17 09:22:40;;;;;;;1.10;0.83;;;4.00;99.90;3.90;100451.00;;;;4889367;28;93295;-66
2023/11/17 09:25:16;;;;;;;1.73;1.20;;;4.10;99.90;3.80;100463.00;;;;4886505;28;93704;-67
2023/11/17 09:27:47;;;;;;;1.10;1.00;;;4.00;99.90;3.80;100459.00;;;;4882292;28;92790;-66
2023/11/17 09:30:14;;;;;;;2.07;1.07;;;4.00;99.90;3.80;100471.00;;;;4888087;28;93320;-67
2023/11/17 09:32:43;;;;;;;1.60;1.50;;;4.00;99.90;3.80;100460.00;;;;4889882;28;93301;-66
2023/11/17 09:35:15;;;;;;;1.33;1.00;;;3.90;99.90;3.80;100466.00;;;;4889751;28;115030;-66
2023/11/17 09:38:01;;;;;;;1.50;1.40;;;3.90;99.90;3.70;100472.00;;;;4890544;28;93301;-66
2023/11/17 09:40:34;;;;;;;1.93;1.20;;;4.00;99.90;3.70;100468.00;;;;4889097;28;97480;-67
2023/11/17 09:43:19;;;;;;;1.97;1.57;;;3.90;99.90;3.70;100469.00;;;;4888985;28;93158;-67
2023/11/17 09:45:45;;;;;;;1.50;1.40;;;4.00;99.90;3.70;100463.00;;;;4885839;28;111944;-67
2023/11/17 09:48:13;;;;;;;2.50;0.97;;;4.10;99.90;3.70;100450.00;;;;4887866;28;113091;-66
2023/11/17 09:50:41;;;;;;;2.17;1.63;;;3.90;99.90;3.70;100457.00;;;;4888903;28;93482;-67
2023/11/17 09:53:09;;;;;;;1.20;1.00;;;3.90;99.90;3.80;100455.00;;;;4887711;28;92370;-68
2023/11/17 09:55:39;;;;;;;2.90;1.63;;;4.00;99.90;3.80;100462.00;;;;4870662;28;92852;-66
2023/11/17 09:58:06;;;;;;;7.80;1.37;;;4.10;99.90;3.90;100466.00;;;;4887343;28;92957;-67
2023/11/17 10:00:36;;;;;;;2.00;1.77;;;4.00;99.90;3.90;100468.00;;;;4889471;28;108318;-68
2023/11/17 10:03:03;;;;;;;4.27;1.73;;;4.10;99.90;4.00;100458.00;;;;4879946;28;92908;-68
2023/11/17 10:05:36;;;;;;;1.93;1.50;;;4.20;99.90;4.00;100460.00;;;;4886497;28;94205;-66
2023/11/17 10:08:06;;;;;;;1.57;1.27;;;4.30;99.90;4.10;100472.00;;;;4886191;28;93280;-66
2023/11/17 10:10:42;;;;;;;2.27;1.23;;;4.30;99.90;4.20;100468.00;;;;4890648;28;103905;-68
2023/11/17 10:13:13;;;;;;;1.57;1.10;;;4.30;99.90;4.20;100466.00;;;;4874759;28;93186;-68
2023/11/17 10:15:50;;;;;;;2.53;1.63;;;4.30;99.90;4.20;100461.00;;;;4888703;28;93868;-66
2023/11/17 10:18:29;;;;;;;6.00;1.87;;;4.40;99.90;4.30;100461.00;;;;4886926;28;93787;-66
2023/11/17 10:20:59;;;;;;;3.07;1.40;;;4.40;99.90;4.30;100463.00;;;;4865883;28;110126;-67
2023/11/17 10:23:26;;;;;;;2.27;1.50;;;4.50;99.90;4.30;100461.00;;;;4890255;28;93143;-66
2023/11/17 10:25:56;;;;;;;1.23;0.97;;;4.50;99.90;4.40;100460.00;;;;4884238;28;104591;-67
2023/11/17 10:28:24;;;;;;;5.40;1.60;;;4.60;99.90;4.50;100459.00;;;;4879978;28;93718;-67
2023/11/17 10:30:57;;;;;;;2.13;1.20;;;5.00;99.90;4.50;100464.00;;;;4890419;28;93471;-68
2023/11/17 10:33:30;;;;;;;1.67;1.00;;;4.70;99.90;4.60;100469.00;;;;4889521;28;97928;-66
2023/11/17 10:36:12;;;;;;;2.43;1.30;;;4.70;99.90;4.60;100468.00;;;;4869867;28;99289;-66
2023/11/17 10:38:46;;;;;;;1.80;1.30;;;4.80;99.90;4.70;100458.00;;;;4890073;28;92988;-67
2023/11/17 10:41:30;;;;;;;1.43;1.33;;;4.80;99.90;4.70;100462.00;;;;4887056;28;93099;-66
2023/11/17 10:43:58;;;;;;;2.37;1.50;;;4.90;99.90;4.80;100456.00;;;;4890594;28;92197;-67
2023/11/17 10:46:44;;;;;;;2.40;1.33;;;5.10;99.90;4.80;100452.00;;;;4892172;28;94170;-68
2023/11/17 10:49:15;;;;;;;1.53;1.20;;;5.00;99.90;4.90;100449.00;;;;4876193;28;93361;-66
2023/11/17 10:51:51;;;;;;;3.67;1.73;;;5.00;99.90;4.90;100441.00;;;;4892034;28;94025;-66
2023/11/17 10:54:18;;;;;;;2.77;1.23;;;5.10;99.90;5.00;100449.00;;;;4893043;28;93697;-66
2023/11/17 10:56:47;;;;;;;2.97;1.90;;;5.10;99.90;5.00;100457.00;;;;4891381;28;93310;-66
2023/11/17 10:59:20;;;;;;;3.40;1.77;;;5.10;99.90;5.10;100452.00;;;;4896135;28;93722;-67
2023/11/17 11:01:47;;;;;;;2.40;1.20;;;5.20;99.90;5.10;100450.00;;;;4889026;28;92895;-67
2023/11/17 11:04:25;;;;;;;1.23;0.90;;;5.30;99.90;5.20;100446.00;;;;4893579;28;93182;-66